Terminal Aerodrome Forecast
Issued by NWS

Home | Current Version | Previous Version | Text Only | Print | Product List | Glossary Off
Versions: 1 2 3 4 5 6 7 8 9 10 11 12 13 14 15 16 17 18

000
FTUS43 KFGF 281700
TAFBJI
TAF
KBJI 281720Z 2818/2918 35009KT P6SM OVC050
     FM282300 35009KT P6SM VCSH OVC015
     FM290800 36008KT P6SM OVC007
     FM291300 05007KT P6SM OVC015=

USA.gov is the U.S. government's official web portal to all federal, state and local government web resources and services.